createdAt,value
2023-02-05T00:00:01.549Z,100.00
2023-02-05T00:02:31.788Z,100.00
2023-02-05T00:05:01.434Z,100.00
2023-02-05T00:07:30.352Z,100.00
2023-02-05T00:09:59.596Z,100.00
2023-02-05T00:12:29.922Z,100.00
2023-02-05T00:14:59.087Z,100.00
2023-02-05T00:17:31.943Z,100.00
2023-02-05T00:20:02.184Z,100.00
2023-02-05T00:22:32.320Z,100.00
2023-02-05T00:25:01.285Z,100.00
2023-02-05T00:27:31.821Z,100.00
2023-02-05T00:30:00.524Z,100.00
2023-02-05T00:32:29.835Z,100.00
2023-02-05T00:34:58.428Z,100.00
2023-02-05T00:37:27.080Z,100.00
2023-02-05T00:39:58.607Z,100.00
2023-02-05T00:42:28.766Z,100.00
2023-02-05T00:44:58.515Z,100.00
2023-02-05T00:47:28.032Z,100.00
2023-02-05T00:49:56.868Z,100.00
2023-02-05T00:52:25.762Z,100.00
2023-02-05T00:54:57.450Z,100.00
2023-02-05T00:57:27.029Z,100.00
2023-02-05T00:59:58.771Z,100.00
2023-02-05T01:02:29.459Z,100.00
2023-02-05T01:04:58.599Z,100.00
2023-02-05T01:07:28.873Z,100.00
2023-02-05T01:09:59.425Z,100.00
2023-02-05T01:12:29.432Z,100.00
2023-02-05T01:15:06.224Z,100.00
2023-02-05T01:17:36.624Z,100.00
2023-02-05T01:20:09.688Z,100.00
2023-02-05T01:22:40.779Z,100.00
2023-02-05T01:25:09.721Z,100.00
2023-02-05T01:27:39.720Z,100.00
2023-02-05T01:30:12.092Z,100.00
2023-02-05T01:32:43.832Z,100.00
2023-02-05T01:35:12.472Z,100.00
2023-02-05T01:37:43.111Z,100.00
2023-02-05T01:40:16.248Z,100.00
2023-02-05T01:42:47.269Z,100.00
2023-02-05T01:45:23.886Z,100.00
2023-02-05T01:48:01.351Z,100.00
2023-02-05T01:50:39.355Z,100.00
2023-02-05T01:53:11.649Z,100.00
2023-02-05T01:55:48.583Z,100.00
2023-02-05T01:58:18.332Z,100.00
2023-02-05T02:00:47.946Z,100.00
2023-02-05T02:03:17.591Z,100.00
2023-02-05T02:05:47.093Z,100.00
2023-02-05T02:08:16.817Z,100.00
2023-02-05T02:10:47.713Z,100.00
2023-02-05T02:13:18.288Z,100.00
2023-02-05T02:15:49.853Z,100.00
2023-02-05T02:18:26.539Z,100.00
2023-02-05T02:21:20.866Z,100.00
2023-02-05T02:24:11.443Z,100.00
2023-02-05T02:27:12.492Z,100.00
2023-02-05T02:30:09.619Z,100.00
2023-02-05T02:32:39.138Z,100.00
2023-02-05T02:35:14.258Z,100.00
2023-02-05T02:37:48.708Z,100.00
2023-02-05T02:40:27.657Z,100.00
2023-02-05T02:43:18.067Z,100.00
2023-02-05T02:45:50.815Z,100.00
2023-02-05T02:48:23.292Z,100.00
2023-02-05T02:50:54.044Z,100.00
2023-02-05T02:53:30.702Z,100.00
2023-02-05T02:56:00.758Z,100.00
2023-02-05T02:58:33.983Z,100.00
2023-02-05T03:01:03.112Z,100.00
2023-02-05T03:03:32.860Z,100.00
2023-02-05T03:06:06.215Z,100.00
2023-02-05T03:08:38.964Z,100.00
2023-02-05T03:11:12.433Z,100.00
2023-02-05T03:13:43.141Z,100.00
2023-02-05T03:16:14.376Z,100.00
2023-02-05T03:18:43.558Z,100.00
2023-02-05T03:21:17.310Z,100.00
2023-02-05T03:23:48.409Z,100.00
2023-02-05T03:26:36.741Z,100.00
2023-02-05T03:29:15.071Z,100.00
2023-02-05T03:32:19.276Z,100.00
2023-02-05T03:34:53.665Z,100.00
2023-02-05T03:37:45.166Z,100.00
2023-02-05T03:40:32.773Z,100.00
2023-02-05T03:43:15.540Z,100.00
2023-02-05T03:46:05.693Z,100.00
2023-02-05T03:48:57.286Z,100.00
2023-02-05T03:51:46.814Z,100.00
2023-02-05T03:54:22.345Z,100.00
2023-02-05T03:56:55.493Z,100.00
2023-02-05T03:59:26.495Z,100.00
2023-02-05T04:01:55.996Z,100.00
2023-02-05T04:04:25.845Z,100.00
2023-02-05T04:06:57.643Z,100.00
2023-02-05T04:09:26.744Z,100.00
2023-02-05T04:11:57.095Z,100.00
2023-02-05T04:14:26.619Z,100.00
2023-02-05T04:16:59.725Z,100.00
2023-02-05T04:19:30.190Z,100.00
2023-02-05T04:22:01.638Z,100.00
2023-02-05T04:24:35.030Z,100.00
2023-02-05T04:27:04.702Z,100.00
2023-02-05T04:29:34.314Z,100.00
2023-02-05T04:32:04.553Z,100.00
2023-02-05T04:34:33.925Z,100.00
2023-02-05T04:37:05.130Z,100.00
2023-02-05T04:39:35.225Z,100.00
2023-02-05T04:42:04.185Z,100.00
2023-02-05T04:44:38.188Z,100.00
2023-02-05T04:47:08.880Z,100.00
2023-02-05T04:49:41.962Z,100.00
2023-02-05T04:52:11.785Z,100.00
2023-02-05T04:54:40.629Z,100.00
2023-02-05T04:57:10.491Z,100.00
2023-02-05T04:59:39.742Z,100.00
2023-02-05T05:02:09.453Z,100.00
2023-02-05T05:04:38.709Z,100.00
2023-02-05T05:07:10.557Z,100.00
2023-02-05T05:09:40.085Z,100.00
2023-02-05T05:12:10.541Z,100.00
2023-02-05T05:14:41.548Z,100.00
2023-02-05T05:17:15.742Z,100.00
2023-02-05T05:19:46.312Z,100.00
2023-02-05T05:22:17.711Z,100.00
2023-02-05T05:24:47.641Z,100.00
2023-02-05T05:27:19.061Z,100.00
2023-02-05T05:29:48.129Z,100.00
2023-02-05T05:32:17.649Z,100.00
2023-02-05T05:34:48.567Z,100.00
2023-02-05T05:37:19.348Z,100.00
2023-02-05T05:40:07.930Z,100.00
2023-02-05T05:42:56.907Z,100.00
2023-02-05T05:45:27.395Z,100.00
2023-02-05T05:47:58.272Z,100.00
2023-02-05T05:50:28.555Z,100.00
2023-02-05T05:53:03.002Z,100.00
2023-02-05T05:55:33.292Z,100.00
2023-02-05T05:58:04.199Z,100.00
2023-02-05T06:00:35.076Z,100.00
2023-02-05T06:03:13.991Z,100.00
2023-02-05T06:05:45.074Z,100.00
2023-02-05T06:08:16.968Z,100.00
2023-02-05T06:10:47.108Z,100.00
2023-02-05T06:13:19.041Z,100.00
2023-02-05T06:15:52.677Z,100.00
2023-02-05T06:18:25.182Z,100.00
2023-02-05T06:20:56.658Z,100.00
2023-02-05T06:23:27.836Z,100.00
2023-02-05T06:25:57.611Z,100.00
2023-02-05T06:28:27.153Z,100.00
2023-02-05T06:30:56.184Z,100.00
2023-02-05T06:33:25.235Z,100.00
2023-02-05T06:35:54.499Z,100.00
2023-02-05T06:38:23.813Z,100.00
2023-02-05T06:40:53.902Z,100.00
2023-02-05T06:43:22.756Z,100.00
2023-02-05T06:45:52.316Z,100.00
2023-02-05T06:48:23.245Z,100.00
2023-02-05T06:50:52.521Z,100.00
2023-02-05T06:53:21.695Z,100.00
2023-02-05T06:55:50.911Z,100.00
2023-02-05T06:58:19.569Z,100.00
2023-02-05T07:00:48.472Z,100.00
2023-02-05T07:03:17.207Z,100.00
2023-02-05T07:05:52.106Z,100.00
2023-02-05T07:08:20.690Z,100.00
2023-02-05T07:10:53.019Z,100.00
2023-02-05T07:13:24.828Z,100.00
2023-02-05T07:15:54.901Z,100.00
2023-02-05T07:18:24.794Z,100.00
2023-02-05T07:20:57.842Z,100.00
2023-02-05T07:23:27.136Z,100.00
2023-02-05T07:25:56.084Z,89.91
2023-02-05T07:28:25.171Z,80.96
2023-02-05T07:30:56.019Z,79.73
2023-02-05T07:33:26.221Z,75.81
2023-02-05T07:35:55.770Z,74.11
2023-02-05T07:38:27.668Z,71.72
2023-02-05T07:40:56.591Z,70.75
2023-02-05T07:43:26.245Z,71.57
2023-02-05T07:45:59.264Z,73.12
2023-02-05T07:48:28.071Z,75.41
2023-02-05T07:50:59.983Z,76.28
2023-02-05T07:53:30.582Z,77.13
2023-02-05T07:56:04.271Z,76.58
2023-02-05T07:58:34.444Z,75.32
2023-02-05T08:01:04.286Z,72.87
2023-02-05T08:03:33.574Z,70.35
2023-02-05T08:06:07.415Z,68.94
2023-02-05T08:08:36.442Z,69.36
2023-02-05T08:11:06.669Z,71.44
2023-02-05T08:13:36.623Z,72.06
2023-02-05T08:16:10.486Z,69.98
2023-02-05T08:18:40.208Z,68.89
2023-02-05T08:21:08.949Z,68.55
2023-02-05T08:23:37.742Z,68.70
2023-02-05T08:26:06.742Z,68.49
2023-02-05T08:28:37.052Z,67.75
2023-02-05T08:31:17.819Z,66.37
2023-02-05T08:33:49.861Z,66.11
2023-02-05T08:36:20.567Z,68.29
2023-02-05T08:38:50.210Z,70.87
2023-02-05T08:41:20.081Z,72.63
2023-02-05T08:43:50.917Z,72.04
2023-02-05T08:46:22.170Z,72.42
2023-02-05T08:48:53.431Z,72.97
2023-02-05T08:51:23.348Z,72.80
2023-02-05T08:53:52.175Z,71.99
2023-02-05T08:56:21.813Z,69.99
2023-02-05T08:58:51.276Z,63.28
2023-02-05T09:01:21.111Z,62.57
2023-02-05T09:03:50.727Z,60.35
2023-02-05T09:06:19.683Z,59.56
2023-02-05T09:08:49.311Z,56.29
2023-02-05T09:11:21.914Z,54.59
2023-02-05T09:13:51.540Z,53.84
2023-02-05T09:16:20.449Z,52.68
2023-02-05T09:18:50.572Z,52.95
2023-02-05T09:21:19.888Z,53.38
2023-02-05T09:23:48.429Z,53.30
2023-02-05T09:26:17.580Z,53.43
2023-02-05T09:28:46.918Z,53.78
2023-02-05T09:31:18.247Z,54.38
2023-02-05T09:33:48.077Z,55.04
2023-02-05T09:36:22.662Z,56.57
2023-02-05T09:39:02.012Z,57.87
2023-02-05T09:41:51.071Z,59.31
2023-02-05T09:44:39.234Z,60.71
2023-02-05T09:47:24.416Z,62.33
2023-02-05T09:49:59.083Z,64.42
2023-02-05T09:52:32.083Z,65.15
2023-02-05T09:55:05.162Z,65.39
2023-02-05T09:57:36.497Z,65.76
2023-02-05T10:00:06.612Z,66.84
2023-02-05T10:02:50.736Z,68.32
2023-02-05T10:05:19.719Z,69.16
2023-02-05T10:08:06.215Z,70.10
2023-02-05T10:10:46.129Z,70.72
2023-02-05T10:13:26.338Z,71.15
2023-02-05T10:16:16.343Z,71.60
2023-02-05T10:19:10.518Z,72.19
2023-02-05T10:22:12.198Z,72.91
2023-02-05T10:24:52.728Z,74.14
2023-02-05T10:27:29.114Z,75.35
2023-02-05T10:30:14.142Z,75.64
2023-02-05T10:32:55.998Z,75.17
2023-02-05T10:35:46.827Z,75.17
2023-02-05T10:38:25.099Z,75.80
2023-02-05T10:41:12.638Z,75.63
2023-02-05T10:43:54.418Z,75.08
2023-02-05T10:46:23.111Z,74.58
2023-02-05T10:48:57.512Z,74.45
2023-02-05T10:51:38.627Z,75.56
2023-02-05T10:54:15.578Z,76.57
2023-02-05T10:56:45.015Z,77.53
2023-02-05T10:59:26.988Z,78.40
2023-02-05T11:02:03.369Z,79.82
2023-02-05T11:05:00.725Z,80.73
2023-02-05T11:07:50.784Z,82.27
2023-02-05T11:10:21.949Z,84.17
2023-02-05T11:13:01.821Z,85.95
2023-02-05T11:15:32.684Z,86.50
2023-02-05T11:18:06.932Z,87.82
2023-02-05T11:20:38.380Z,88.39
2023-02-05T11:23:22.316Z,88.25
2023-02-05T11:25:54.900Z,87.02
2023-02-05T11:28:24.781Z,86.02
2023-02-05T11:30:54.045Z,87.43
2023-02-05T11:33:23.334Z,88.74
2023-02-05T11:36:03.545Z,89.47
2023-02-05T11:38:44.734Z,90.13
2023-02-05T11:41:15.722Z,90.64
2023-02-05T11:43:51.421Z,90.77
2023-02-05T11:46:22.923Z,90.35
2023-02-05T11:49:02.184Z,89.74
2023-02-05T11:51:44.997Z,88.22
2023-02-05T11:54:20.635Z,88.08
2023-02-05T11:57:24.082Z,87.65
2023-02-05T11:59:57.465Z,88.22
2023-02-05T12:02:31.620Z,89.05
2023-02-05T12:05:06.464Z,90.41
2023-02-05T12:07:45.476Z,91.74
2023-02-05T12:10:44.549Z,92.49
2023-02-05T12:13:36.010Z,93.56
2023-02-05T12:16:50.534Z,94.56
2023-02-05T12:19:27.398Z,94.93
2023-02-05T12:22:13.963Z,95.51
2023-02-05T12:24:49.078Z,95.98
2023-02-05T12:27:37.406Z,96.77
2023-02-05T12:30:27.491Z,97.61
2023-02-05T12:33:01.938Z,97.76
2023-02-05T12:35:50.897Z,98.85
2023-02-05T12:38:32.554Z,99.34
2023-02-05T12:41:23.317Z,99.73
2023-02-05T12:43:53.715Z,99.95
2023-02-05T12:46:45.423Z,100.00
2023-02-05T12:49:36.140Z,100.00
2023-02-05T12:52:39.121Z,100.00
2023-02-05T12:55:29.566Z,100.00
2023-02-05T12:58:02.430Z,100.00
2023-02-05T13:00:44.658Z,100.00
2023-02-05T13:03:19.736Z,100.00
2023-02-05T13:05:53.741Z,100.00
2023-02-05T13:08:48.762Z,100.00
2023-02-05T13:11:50.810Z,100.00
2023-02-05T13:14:26.309Z,100.00
2023-02-05T13:17:12.141Z,100.00
2023-02-05T13:19:44.674Z,100.00
2023-02-05T13:22:37.165Z,100.00
2023-02-05T13:25:57.312Z,100.00
2023-02-05T13:28:43.728Z,100.00
2023-02-05T13:31:27.896Z,100.00
2023-02-05T13:34:01.744Z,100.00
2023-02-05T13:36:42.886Z,100.00
2023-02-05T13:39:34.390Z,100.00
2023-02-05T13:42:18.894Z,100.00
2023-02-05T13:45:05.183Z,100.00
2023-02-05T13:47:51.660Z,100.00
2023-02-05T13:50:48.154Z,100.00
2023-02-05T13:53:50.993Z,100.00
2023-02-05T13:56:29.463Z,100.00
2023-02-05T13:59:01.016Z,100.00
2023-02-05T14:01:35.113Z,100.00
2023-02-05T14:04:17.713Z,100.00
2023-02-05T14:06:51.806Z,100.00
2023-02-05T14:09:24.137Z,100.00
2023-02-05T14:11:58.538Z,100.00
2023-02-05T14:14:29.182Z,100.00
2023-02-05T14:17:01.004Z,100.00
2023-02-05T14:19:33.039Z,100.00
2023-02-05T14:22:04.193Z,100.00
2023-02-05T14:24:49.661Z,100.00
2023-02-05T14:27:37.838Z,100.00
2023-02-05T14:30:33.274Z,100.00
2023-02-05T14:33:30.597Z,100.00
2023-02-05T14:36:22.970Z,100.00
2023-02-05T14:39:26.648Z,100.00
2023-02-05T14:41:59.512Z,100.00
2023-02-05T14:44:36.098Z,100.00
2023-02-05T14:47:26.568Z,100.00
2023-02-05T14:50:05.966Z,100.00
2023-02-05T14:52:42.993Z,100.00
2023-02-05T14:55:14.447Z,100.00
2023-02-05T14:57:58.327Z,100.00
2023-02-05T15:00:30.095Z,100.00
2023-02-05T15:03:13.697Z,100.00
2023-02-05T15:05:47.495Z,100.00
2023-02-05T15:08:36.282Z,100.00
2023-02-05T15:11:13.599Z,100.00
2023-02-05T15:13:43.579Z,100.00
2023-02-05T15:16:13.437Z,100.00
2023-02-05T15:18:59.367Z,100.00
2023-02-05T15:21:41.061Z,100.00
2023-02-05T15:24:21.714Z,100.00
2023-02-05T15:26:52.811Z,100.00
2023-02-05T15:29:27.154Z,100.00
2023-02-05T15:31:59.572Z,100.00
2023-02-05T15:34:33.407Z,100.00
2023-02-05T15:37:18.958Z,100.00
2023-02-05T15:39:55.793Z,100.00
2023-02-05T15:42:31.857Z,100.00
2023-02-05T15:45:18.213Z,100.00
2023-02-05T15:48:19.188Z,100.00
2023-02-05T15:50:52.482Z,100.00
2023-02-05T15:53:50.834Z,100.00
2023-02-05T15:56:29.687Z,100.00
2023-02-05T15:59:12.704Z,100.00
2023-02-05T16:02:00.525Z,100.00
2023-02-05T16:04:32.265Z,100.00
2023-02-05T16:07:05.140Z,100.00
2023-02-05T16:09:36.118Z,100.00
2023-02-05T16:12:13.193Z,100.00
2023-02-05T16:14:42.297Z,100.00
2023-02-05T16:17:19.849Z,100.00
2023-02-05T16:19:53.523Z,100.00
2023-02-05T16:22:44.611Z,100.00
2023-02-05T16:25:24.281Z,100.00
2023-02-05T16:27:55.234Z,100.00
2023-02-05T16:30:34.535Z,100.00
2023-02-05T16:33:04.674Z,100.00
2023-02-05T16:35:36.467Z,100.00
2023-02-05T16:38:09.556Z,100.00
2023-02-05T16:40:46.993Z,100.00
2023-02-05T16:43:36.353Z,100.00
2023-02-05T16:46:08.611Z,100.00
2023-02-05T16:48:39.257Z,100.00
2023-02-05T16:51:34.139Z,100.00
2023-02-05T16:54:22.422Z,100.00
2023-02-05T16:56:56.959Z,100.00
2023-02-05T16:59:29.890Z,100.00
2023-02-05T17:02:03.838Z,100.00
2023-02-05T17:04:37.280Z,100.00
2023-02-05T17:07:16.915Z,100.00
2023-02-05T17:09:46.887Z,100.00
2023-02-05T17:12:20.511Z,100.00
2023-02-05T17:15:03.695Z,100.00
2023-02-05T17:17:33.753Z,100.00
2023-02-05T17:20:04.759Z,100.00
2023-02-05T17:22:35.020Z,100.00
2023-02-05T17:25:06.284Z,100.00
2023-02-05T17:27:39.735Z,100.00
2023-02-05T17:30:15.262Z,100.00
2023-02-05T17:32:47.022Z,100.00
2023-02-05T17:35:17.441Z,100.00
2023-02-05T17:37:46.069Z,100.00
2023-02-05T17:40:18.004Z,100.00
2023-02-05T17:42:47.455Z,100.00
2023-02-05T17:45:24.510Z,100.00
2023-02-05T17:47:54.736Z,100.00
2023-02-05T17:50:23.790Z,100.00
2023-02-05T17:52:52.736Z,100.00
2023-02-05T17:55:23.494Z,100.00
2023-02-05T17:57:52.479Z,100.00
2023-02-05T18:00:23.833Z,100.00
2023-02-05T18:02:53.582Z,100.00
2023-02-05T18:05:24.297Z,100.00
2023-02-05T18:08:00.396Z,100.00
2023-02-05T18:10:34.764Z,100.00
2023-02-05T18:13:05.045Z,100.00
2023-02-05T18:15:33.917Z,100.00
2023-02-05T18:18:04.024Z,100.00
2023-02-05T18:20:35.370Z,100.00
2023-02-05T18:23:04.986Z,100.00
2023-02-05T18:25:34.321Z,100.00
2023-02-05T18:28:04.668Z,100.00
2023-02-05T18:30:34.821Z,100.00
2023-02-05T18:33:04.911Z,100.00
2023-02-05T18:35:33.911Z,100.00
2023-02-05T18:38:03.759Z,100.00
2023-02-05T18:40:38.889Z,100.00
2023-02-05T18:43:08.696Z,100.00
2023-02-05T18:45:41.709Z,100.00
2023-02-05T18:48:13.060Z,100.00
2023-02-05T18:50:42.363Z,100.00
2023-02-05T18:53:14.610Z,100.00
2023-02-05T18:55:44.075Z,100.00
2023-02-05T18:58:13.628Z,100.00
2023-02-05T19:00:44.314Z,100.00
2023-02-05T19:03:15.604Z,100.00
2023-02-05T19:05:45.214Z,100.00
2023-02-05T19:08:14.996Z,100.00
2023-02-05T19:10:44.186Z,100.00
2023-02-05T19:13:15.111Z,100.00
2023-02-05T19:15:45.068Z,100.00
2023-02-05T19:18:15.461Z,100.00
2023-02-05T19:20:46.118Z,100.00
2023-02-05T19:23:16.191Z,100.00
2023-02-05T19:25:46.920Z,100.00
2023-02-05T19:28:20.151Z,100.00
2023-02-05T19:30:49.757Z,100.00
2023-02-05T19:33:19.790Z,100.00
2023-02-05T19:35:49.516Z,100.00
2023-02-05T19:38:21.630Z,100.00
2023-02-05T19:40:51.248Z,100.00
2023-02-05T19:43:21.071Z,100.00
2023-02-05T19:45:51.076Z,100.00
2023-02-05T19:48:21.107Z,100.00
2023-02-05T19:50:49.823Z,100.00
2023-02-05T19:53:19.359Z,100.00
2023-02-05T19:55:51.517Z,100.00
2023-02-05T19:58:21.247Z,100.00
2023-02-05T20:00:51.007Z,100.00
2023-02-05T20:03:20.211Z,100.00
2023-02-05T20:05:49.132Z,100.00
2023-02-05T20:08:18.285Z,100.00
2023-02-05T20:10:46.994Z,100.00
2023-02-05T20:13:16.848Z,100.00
2023-02-05T20:15:45.957Z,100.00
2023-02-05T20:18:15.817Z,100.00
2023-02-05T20:20:46.655Z,100.00
2023-02-05T20:23:17.344Z,100.00
2023-02-05T20:25:52.861Z,100.00
2023-02-05T20:28:22.584Z,100.00
2023-02-05T20:31:10.583Z,100.00
2023-02-05T20:33:39.631Z,100.00
2023-02-05T20:36:13.695Z,100.00
2023-02-05T20:38:43.287Z,100.00
2023-02-05T20:41:15.441Z,100.00
2023-02-05T20:43:44.909Z,100.00
2023-02-05T20:46:14.544Z,100.00
2023-02-05T20:48:44.600Z,100.00
2023-02-05T20:51:15.933Z,100.00
2023-02-05T20:53:45.232Z,100.00
2023-02-05T20:56:19.084Z,100.00
2023-02-05T20:58:49.733Z,100.00
2023-02-05T21:01:22.666Z,100.00
2023-02-05T21:03:55.847Z,100.00
2023-02-05T21:06:26.699Z,100.00
2023-02-05T21:08:56.435Z,100.00
2023-02-05T21:11:26.524Z,100.00
2023-02-05T21:13:56.577Z,100.00
2023-02-05T21:16:26.492Z,100.00
2023-02-05T21:18:56.097Z,100.00
2023-02-05T21:21:29.386Z,100.00
2023-02-05T21:24:01.561Z,100.00
2023-02-05T21:26:37.364Z,100.00
2023-02-05T21:29:10.641Z,100.00
2023-02-05T21:31:42.184Z,100.00
2023-02-05T21:34:16.191Z,100.00
2023-02-05T21:36:46.058Z,100.00
2023-02-05T21:39:16.365Z,100.00
2023-02-05T21:41:47.768Z,100.00
2023-02-05T21:44:19.149Z,100.00
2023-02-05T21:46:49.431Z,100.00
2023-02-05T21:49:19.032Z,100.00
2023-02-05T21:51:48.947Z,100.00
2023-02-05T21:54:17.623Z,100.00
2023-02-05T21:56:46.816Z,100.00
2023-02-05T21:59:16.682Z,100.00
2023-02-05T22:01:46.843Z,100.00
2023-02-05T22:04:16.995Z,100.00
2023-02-05T22:06:46.023Z,100.00
2023-02-05T22:09:17.838Z,100.00
2023-02-05T22:11:49.391Z,100.00
2023-02-05T22:14:18.469Z,100.00
2023-02-05T22:16:46.895Z,100.00
2023-02-05T22:19:20.437Z,100.00
2023-02-05T22:21:51.097Z,100.00
2023-02-05T22:24:25.394Z,100.00
2023-02-05T22:26:55.078Z,100.00
2023-02-05T22:29:26.208Z,100.00
2023-02-05T22:31:56.632Z,100.00
2023-02-05T22:34:26.100Z,100.00
2023-02-05T22:36:55.510Z,100.00
2023-02-05T22:39:24.440Z,100.00
2023-02-05T22:41:53.316Z,100.00
2023-02-05T22:44:23.052Z,100.00
2023-02-05T22:46:51.560Z,100.00
2023-02-05T22:49:21.273Z,100.00
2023-02-05T22:51:51.792Z,100.00
2023-02-05T22:54:21.441Z,100.00
2023-02-05T22:56:51.236Z,100.00
2023-02-05T22:59:21.053Z,100.00
2023-02-05T23:01:49.675Z,100.00
2023-02-05T23:04:18.167Z,100.00
2023-02-05T23:06:47.886Z,100.00
2023-02-05T23:09:18.074Z,100.00
2023-02-05T23:11:49.061Z,100.00
2023-02-05T23:14:19.720Z,100.00
2023-02-05T23:16:50.579Z,100.00
2023-02-05T23:19:20.518Z,100.00
2023-02-05T23:21:49.993Z,100.00
2023-02-05T23:24:19.295Z,100.00
2023-02-05T23:26:51.004Z,100.00
2023-02-05T23:29:19.964Z,100.00
2023-02-05T23:31:51.519Z,100.00
2023-02-05T23:34:20.740Z,100.00
2023-02-05T23:36:50.151Z,100.00
2023-02-05T23:39:19.041Z,100.00
2023-02-05T23:41:48.618Z,100.00
2023-02-05T23:44:21.171Z,100.00
2023-02-05T23:46:50.826Z,100.00
2023-02-05T23:49:24.260Z,100.00
2023-02-05T23:51:53.737Z,100.00
2023-02-05T23:54:24.267Z,100.00
2023-02-05T23:56:53.099Z,100.00
2023-02-05T23:59:21.965Z,100.00
